createdAt,value
2019-03-09T00:00:45.872Z,7.05
2019-03-09T00:03:19.299Z,7.02
2019-03-09T00:05:51.073Z,7.00
2019-03-09T00:08:23.168Z,6.95
2019-03-09T00:10:54.779Z,6.89
2019-03-09T00:13:28.107Z,6.85
2019-03-09T00:16:00.009Z,6.82
2019-03-09T00:18:31.428Z,6.82
2019-03-09T00:21:03.210Z,6.76
2019-03-09T00:23:53.687Z,6.76
2019-03-09T00:26:37.239Z,6.76
2019-03-09T00:29:18.620Z,6.77
2019-03-09T00:31:56.012Z,6.75
2019-03-09T00:34:27.098Z,6.74
2019-03-09T00:36:59.188Z,6.78
2019-03-09T00:39:29.896Z,6.72
2019-03-09T00:42:00.313Z,6.74
2019-03-09T00:44:31.031Z,6.71
2019-03-09T00:47:01.944Z,6.68
2019-03-09T00:49:32.802Z,6.64
2019-03-09T00:52:03.858Z,6.64
2019-03-09T00:54:36.748Z,6.62
2019-03-09T00:57:08.145Z,6.59
2019-03-09T00:59:39.308Z,6.59
2019-03-09T01:02:10.086Z,6.56
2019-03-09T01:04:40.953Z,6.53
2019-03-09T01:07:11.731Z,6.54
2019-03-09T01:09:42.126Z,6.49
2019-03-09T01:12:12.784Z,6.51
2019-03-09T01:14:43.292Z,6.45
2019-03-09T01:17:14.000Z,6.46
2019-03-09T01:19:45.057Z,6.43
2019-03-09T01:22:15.719Z,6.42
2019-03-09T01:24:46.485Z,6.40
2019-03-09T01:27:16.873Z,6.30
2019-03-09T01:29:47.574Z,6.29
2019-03-09T01:32:18.084Z,6.26
2019-03-09T01:34:48.650Z,6.26
2019-03-09T01:37:19.270Z,6.20
2019-03-09T01:39:49.805Z,6.18
2019-03-09T01:42:20.230Z,6.15
2019-03-09T01:44:50.653Z,6.11
2019-03-09T01:47:21.223Z,6.08
2019-03-09T01:49:51.694Z,6.03
2019-03-09T01:52:22.594Z,6.03
2019-03-09T01:54:53.044Z,5.97
2019-03-09T01:57:23.573Z,5.95
2019-03-09T01:59:54.559Z,5.90
2019-03-09T02:02:25.155Z,5.91
2019-03-09T02:04:55.741Z,5.86
2019-03-09T02:07:26.169Z,5.85
2019-03-09T02:09:56.567Z,5.83
2019-03-09T02:12:28.781Z,5.81
2019-03-09T02:15:00.344Z,5.78
2019-03-09T02:17:30.888Z,5.72
2019-03-09T02:20:01.765Z,5.70
2019-03-09T02:22:32.469Z,5.69
2019-03-09T02:25:02.934Z,5.67
2019-03-09T02:27:33.781Z,5.66
2019-03-09T02:30:04.506Z,5.61
2019-03-09T02:32:36.684Z,5.61
2019-03-09T02:35:09.612Z,5.62
2019-03-09T02:37:40.343Z,5.63
2019-03-09T02:40:13.718Z,5.59
2019-03-09T02:42:44.657Z,5.59
2019-03-09T02:45:16.543Z,5.57
2019-03-09T02:47:47.035Z,5.57
2019-03-09T02:50:17.512Z,5.55
2019-03-09T02:52:48.176Z,5.55
2019-03-09T02:55:18.608Z,5.54
2019-03-09T02:57:49.721Z,5.48
2019-03-09T03:00:21.276Z,5.46
2019-03-09T03:03:01.325Z,5.46
2019-03-09T03:05:31.756Z,5.46
2019-03-09T03:08:02.371Z,5.42
2019-03-09T03:10:33.460Z,5.44
2019-03-09T03:13:04.136Z,5.44
2019-03-09T03:15:35.947Z,5.44
2019-03-09T03:18:06.699Z,5.45
2019-03-09T03:20:37.834Z,5.45
2019-03-09T03:23:08.284Z,5.45
2019-03-09T03:25:38.728Z,5.44
2019-03-09T03:28:11.726Z,5.46
2019-03-09T03:30:42.608Z,5.44
2019-03-09T03:33:13.425Z,5.46
2019-03-09T03:35:43.927Z,5.48
2019-03-09T03:38:14.271Z,5.48
2019-03-09T03:40:46.345Z,5.45
2019-03-09T03:43:17.003Z,5.42
2019-03-09T03:45:48.064Z,5.32
2019-03-09T03:48:18.728Z,5.27
2019-03-09T03:50:49.548Z,5.20
2019-03-09T03:53:20.379Z,5.11
2019-03-09T03:55:51.141Z,5.05
2019-03-09T03:58:22.144Z,5.03
2019-03-09T04:00:52.654Z,5.04
2019-03-09T04:03:23.039Z,5.01
2019-03-09T04:05:53.864Z,5.04
2019-03-09T04:08:24.446Z,5.04
2019-03-09T04:10:55.240Z,5.03
2019-03-09T04:13:25.939Z,5.00
2019-03-09T04:15:56.488Z,5.03
2019-03-09T04:18:27.089Z,4.99
2019-03-09T04:20:57.491Z,5.04
2019-03-09T04:23:29.647Z,4.99
2019-03-09T04:26:00.453Z,4.94
2019-03-09T04:28:30.812Z,4.93
2019-03-09T04:31:02.497Z,4.87
2019-03-09T04:33:33.048Z,4.93
2019-03-09T04:36:03.454Z,4.89
2019-03-09T04:38:33.920Z,4.89
2019-03-09T04:41:04.911Z,4.88
2019-03-09T04:43:36.303Z,4.87
2019-03-09T04:46:06.795Z,4.87
2019-03-09T04:48:37.351Z,4.86
2019-03-09T04:51:07.911Z,4.83
2019-03-09T04:53:38.430Z,4.83
2019-03-09T04:56:08.962Z,4.84
2019-03-09T04:58:40.474Z,4.84
2019-03-09T05:01:10.943Z,4.84
2019-03-09T05:03:42.417Z,4.82
2019-03-09T05:06:15.621Z,4.80
2019-03-09T05:09:25.333Z,4.76
2019-03-09T05:11:55.784Z,4.75
2019-03-09T05:14:27.134Z,4.72
2019-03-09T05:16:57.556Z,4.75
2019-03-09T05:19:29.314Z,4.69
2019-03-09T05:22:00.846Z,4.66
2019-03-09T05:24:31.495Z,4.65
2019-03-09T05:27:02.077Z,4.67
2019-03-09T05:29:32.476Z,4.68
2019-03-09T05:32:04.629Z,4.71
2019-03-09T05:34:35.340Z,4.71
2019-03-09T05:37:05.792Z,4.80
2019-03-09T05:39:37.564Z,4.88
2019-03-09T05:42:10.211Z,4.84
2019-03-09T05:44:40.715Z,4.84
2019-03-09T05:47:11.129Z,4.85
2019-03-09T05:49:42.022Z,4.89
2019-03-09T05:52:37.931Z,4.90
2019-03-09T05:55:12.442Z,4.94
2019-03-09T05:57:42.958Z,5.01
2019-03-09T06:00:15.403Z,5.05
2019-03-09T06:02:45.843Z,5.06
2019-03-09T06:05:49.400Z,5.06
2019-03-09T06:08:20.105Z,5.13
2019-03-09T06:10:50.675Z,5.19
2019-03-09T06:13:21.065Z,5.27
2019-03-09T06:15:51.515Z,5.32
2019-03-09T06:18:22.175Z,5.37
2019-03-09T06:20:52.529Z,5.45
2019-03-09T06:23:22.874Z,5.44
2019-03-09T06:25:54.792Z,5.62
2019-03-09T06:28:25.604Z,5.71
2019-03-09T06:30:56.612Z,5.64
2019-03-09T06:33:34.396Z,5.62
2019-03-09T06:36:57.128Z,5.60
2019-03-09T06:39:32.991Z,5.60
2019-03-09T06:42:29.451Z,5.66
2019-03-09T06:44:59.986Z,5.71
2019-03-09T06:47:30.597Z,5.79
2019-03-09T06:50:01.101Z,5.92
2019-03-09T06:52:32.462Z,6.04
2019-03-09T06:55:03.176Z,6.17
2019-03-09T06:57:34.024Z,6.35
2019-03-09T07:00:35.989Z,6.49
2019-03-09T07:03:07.480Z,6.58
2019-03-09T07:05:37.931Z,6.74
2019-03-09T07:08:08.453Z,6.86
2019-03-09T07:10:38.798Z,7.00
2019-03-09T07:13:09.203Z,7.10
2019-03-09T07:15:42.202Z,7.24
2019-03-09T07:18:17.836Z,7.37
2019-03-09T07:20:48.514Z,7.44
2019-03-09T07:23:18.966Z,7.68
2019-03-09T07:25:49.707Z,7.79
2019-03-09T07:28:21.004Z,7.78
2019-03-09T07:30:52.005Z,7.97
2019-03-09T07:33:22.437Z,8.09
2019-03-09T07:35:54.708Z,8.04
2019-03-09T07:38:25.485Z,8.11
2019-03-09T07:40:56.310Z,8.21
2019-03-09T07:43:27.136Z,8.15
2019-03-09T07:45:58.020Z,8.15
2019-03-09T07:48:28.450Z,8.37
2019-03-09T07:50:58.935Z,8.44
2019-03-09T07:53:29.666Z,8.50
2019-03-09T07:56:03.296Z,8.66
2019-03-09T07:58:34.023Z,8.72
2019-03-09T08:01:06.815Z,8.86
2019-03-09T08:03:37.591Z,8.98
2019-03-09T08:06:08.307Z,9.08
2019-03-09T08:08:38.818Z,9.19
2019-03-09T08:11:09.240Z,9.15
2019-03-09T08:13:39.864Z,9.20
2019-03-09T08:16:10.382Z,9.17
2019-03-09T08:18:40.996Z,9.30
2019-03-09T08:21:11.656Z,9.41
2019-03-09T08:23:42.431Z,9.34
2019-03-09T08:26:14.243Z,9.59
2019-03-09T08:28:44.713Z,9.71
2019-03-09T08:31:15.290Z,9.63
2019-03-09T08:33:45.646Z,9.67
2019-03-09T08:36:16.282Z,9.70
2019-03-09T08:38:46.641Z,9.73
2019-03-09T08:41:17.294Z,9.81
2019-03-09T08:43:47.749Z,9.74
2019-03-09T08:46:18.251Z,9.76
2019-03-09T08:48:48.661Z,9.76
2019-03-09T08:51:19.086Z,9.78
2019-03-09T08:53:50.607Z,9.89
2019-03-09T08:56:21.052Z,10.05
2019-03-09T08:58:51.510Z,10.10
2019-03-09T09:01:21.978Z,10.15
2019-03-09T09:03:52.545Z,10.28
2019-03-09T09:06:23.129Z,9.81
2019-03-09T09:08:53.620Z,9.98
2019-03-09T09:11:25.386Z,9.98
2019-03-09T09:13:55.902Z,10.14
2019-03-09T09:16:26.648Z,10.15
2019-03-09T09:18:58.365Z,10.18
2019-03-09T09:21:28.976Z,10.20
2019-03-09T09:23:59.535Z,10.36
2019-03-09T09:26:30.186Z,10.43
2019-03-09T09:29:00.650Z,10.35
2019-03-09T09:31:31.384Z,10.34
2019-03-09T09:34:02.037Z,10.29
2019-03-09T09:36:32.885Z,10.33
2019-03-09T09:39:04.037Z,10.46
2019-03-09T09:41:36.305Z,10.44
2019-03-09T09:44:06.840Z,10.61
2019-03-09T09:46:37.398Z,10.82
2019-03-09T09:49:07.886Z,10.75
2019-03-09T09:51:38.480Z,10.77
2019-03-09T09:54:09.143Z,10.98
2019-03-09T09:56:39.668Z,10.88
2019-03-09T09:59:10.342Z,10.85
2019-03-09T10:01:40.902Z,11.00
2019-03-09T10:04:11.278Z,10.94
2019-03-09T10:06:41.773Z,10.88
2019-03-09T10:09:12.507Z,10.93
2019-03-09T10:11:43.074Z,11.07
2019-03-09T10:14:13.438Z,10.94
2019-03-09T10:16:44.050Z,10.79
2019-03-09T10:19:14.427Z,10.86
2019-03-09T10:21:45.054Z,11.01
2019-03-09T10:24:16.749Z,11.13
2019-03-09T10:26:47.862Z,11.14
2019-03-09T10:29:18.440Z,11.11
2019-03-09T10:31:49.361Z,11.41
2019-03-09T10:34:19.732Z,11.31
2019-03-09T10:36:50.286Z,11.36
2019-03-09T10:39:20.740Z,11.17
2019-03-09T10:41:51.099Z,11.21
2019-03-09T10:44:21.807Z,11.24
2019-03-09T10:46:52.164Z,11.19
2019-03-09T10:49:22.675Z,11.00
2019-03-09T10:51:53.144Z,10.92
2019-03-09T10:54:23.564Z,10.94
2019-03-09T10:56:53.992Z,10.91
2019-03-09T10:59:24.449Z,11.12
2019-03-09T11:01:54.822Z,11.17
2019-03-09T11:04:27.805Z,11.11
2019-03-09T11:06:57.703Z,11.20
2019-03-09T11:09:28.094Z,11.00
2019-03-09T11:11:58.593Z,10.90
2019-03-09T11:14:29.010Z,10.73
2019-03-09T11:16:59.528Z,10.77
2019-03-09T11:19:29.944Z,10.75
2019-03-09T11:22:00.499Z,10.40
2019-03-09T11:24:31.808Z,10.39
2019-03-09T11:27:02.208Z,10.45
2019-03-09T11:29:32.545Z,10.62
2019-03-09T11:32:02.966Z,10.56
2019-03-09T11:34:33.350Z,10.66
2019-03-09T11:37:03.875Z,10.57
2019-03-09T11:39:34.189Z,10.44
2019-03-09T11:42:04.974Z,10.39
2019-03-09T11:44:35.442Z,10.18
2019-03-09T11:47:07.435Z,10.20
2019-03-09T11:49:38.741Z,10.29
2019-03-09T11:52:16.330Z,10.22
2019-03-09T11:54:41.434Z,10.30
2019-03-09T11:57:12.215Z,10.32
2019-03-09T11:59:42.532Z,10.42
2019-03-09T12:02:12.941Z,10.42
2019-03-09T12:04:47.088Z,10.44
2019-03-09T12:07:17.803Z,10.49
2019-03-09T12:09:48.307Z,10.52
2019-03-09T12:12:18.757Z,10.54
2019-03-09T12:14:49.354Z,10.46
2019-03-09T12:17:19.752Z,10.22
2019-03-09T12:19:50.152Z,9.86
2019-03-09T12:22:20.579Z,9.69
2019-03-09T12:24:53.989Z,9.38
2019-03-09T12:27:24.558Z,8.99
2019-03-09T12:29:55.265Z,8.57
2019-03-09T12:32:25.785Z,8.30
2019-03-09T12:34:56.572Z,8.26
2019-03-09T12:37:27.065Z,8.15
2019-03-09T12:39:57.534Z,7.90
2019-03-09T12:42:28.076Z,7.84
2019-03-09T12:44:58.807Z,7.74
2019-03-09T12:47:29.192Z,7.57
2019-03-09T12:49:59.795Z,7.53
2019-03-09T12:52:30.432Z,7.52
2019-03-09T12:55:00.881Z,7.42
2019-03-09T12:57:32.666Z,7.31
2019-03-09T13:00:03.291Z,7.22
2019-03-09T13:02:33.963Z,7.36
2019-03-09T13:05:04.455Z,7.36
2019-03-09T13:07:34.854Z,7.40
2019-03-09T13:10:06.217Z,7.56
2019-03-09T13:12:38.998Z,7.56
2019-03-09T13:15:09.541Z,7.57
2019-03-09T13:17:41.033Z,7.93
2019-03-09T13:20:11.798Z,8.20
2019-03-09T13:22:42.236Z,8.33
2019-03-09T13:25:12.838Z,8.22
2019-03-09T13:27:43.578Z,8.08
2019-03-09T13:30:16.568Z,7.98
2019-03-09T13:32:47.322Z,7.99
2019-03-09T13:35:17.699Z,7.96
2019-03-09T13:37:48.733Z,7.96
2019-03-09T13:40:19.145Z,7.90
2019-03-09T13:42:49.553Z,7.91
2019-03-09T13:45:19.872Z,7.95
2019-03-09T13:47:50.260Z,8.00
2019-03-09T13:50:20.649Z,8.04
2019-03-09T13:52:52.483Z,8.08
2019-03-09T13:55:23.233Z,8.08
2019-03-09T13:57:55.496Z,8.11
2019-03-09T14:00:26.124Z,8.18
2019-03-09T14:02:56.868Z,8.25
2019-03-09T14:05:27.713Z,8.26
2019-03-09T14:07:59.853Z,8.34
2019-03-09T14:10:30.621Z,8.41
2019-03-09T14:13:01.021Z,8.50
2019-03-09T14:15:31.700Z,8.61
2019-03-09T14:18:02.308Z,8.75
2019-03-09T14:20:32.689Z,8.76
2019-03-09T14:23:03.087Z,8.92
2019-03-09T14:25:33.690Z,9.17
2019-03-09T14:28:04.434Z,9.18
2019-03-09T14:30:35.249Z,9.44
2019-03-09T14:33:05.873Z,9.54
2019-03-09T14:35:36.273Z,9.42
2019-03-09T14:38:06.792Z,9.50
2019-03-09T14:40:37.241Z,9.39
2019-03-09T14:43:07.716Z,9.66
2019-03-09T14:45:38.551Z,9.83
2019-03-09T14:48:09.233Z,9.88
2019-03-09T14:50:39.813Z,9.68
2019-03-09T14:53:10.278Z,9.82
2019-03-09T14:55:40.738Z,9.84
2019-03-09T14:58:11.163Z,9.79
2019-03-09T15:00:41.519Z,9.61
2019-03-09T15:03:11.947Z,9.73
2019-03-09T15:05:42.312Z,9.52
2019-03-09T15:08:14.944Z,9.49
2019-03-09T15:10:45.411Z,9.51
2019-03-09T15:13:15.911Z,9.58
2019-03-09T15:15:46.375Z,9.43
2019-03-09T15:18:16.695Z,9.42
2019-03-09T15:20:47.180Z,9.42
2019-03-09T15:23:17.523Z,9.16
2019-03-09T15:25:47.967Z,9.20
2019-03-09T15:28:18.437Z,9.09
2019-03-09T15:30:48.831Z,9.05
2019-03-09T15:33:21.702Z,8.97
2019-03-09T15:35:53.891Z,8.94
2019-03-09T15:38:24.286Z,8.94
2019-03-09T15:40:54.820Z,8.95
2019-03-09T15:43:25.443Z,8.95
2019-03-09T15:45:55.963Z,8.96
2019-03-09T15:48:26.476Z,8.94
2019-03-09T15:50:57.479Z,8.93
2019-03-09T15:53:27.819Z,8.91
2019-03-09T15:55:58.401Z,8.90
2019-03-09T15:58:31.009Z,8.88
2019-03-09T16:01:01.540Z,8.85
2019-03-09T16:03:32.266Z,8.85
2019-03-09T16:06:02.776Z,8.83
2019-03-09T16:08:33.183Z,8.81
2019-03-09T16:11:03.868Z,8.82
2019-03-09T16:13:34.360Z,8.77
2019-03-09T16:16:05.001Z,8.78
2019-03-09T16:18:35.388Z,8.79
2019-03-09T16:21:05.752Z,8.78
2019-03-09T16:23:36.116Z,8.80
2019-03-09T16:26:06.599Z,8.70
2019-03-09T16:28:37.091Z,8.70
2019-03-09T16:31:07.474Z,8.65
2019-03-09T16:33:37.869Z,8.63
2019-03-09T16:36:08.350Z,8.65
2019-03-09T16:38:38.908Z,8.59
2019-03-09T16:41:09.728Z,8.62
2019-03-09T16:43:40.542Z,8.55
2019-03-09T16:46:11.408Z,8.56
2019-03-09T16:48:41.897Z,8.54
2019-03-09T16:51:12.550Z,8.59
2019-03-09T16:53:43.464Z,8.54
2019-03-09T16:56:14.002Z,8.51
2019-03-09T16:58:46.622Z,8.51
2019-03-09T17:01:17.145Z,8.54
2019-03-09T17:03:47.663Z,8.47
2019-03-09T17:06:18.368Z,8.38
2019-03-09T17:08:49.195Z,8.41
2019-03-09T17:11:20.124Z,8.40
2019-03-09T17:13:50.834Z,8.40
2019-03-09T17:16:21.288Z,8.40
2019-03-09T17:18:52.200Z,8.41
2019-03-09T17:21:22.974Z,8.42
2019-03-09T17:23:53.732Z,8.40
2019-03-09T17:26:24.478Z,8.43
2019-03-09T17:28:54.909Z,8.42
2019-03-09T17:31:25.611Z,8.42
2019-03-09T17:33:56.295Z,8.44
2019-03-09T17:36:27.484Z,8.45
2019-03-09T17:38:58.468Z,8.50
2019-03-09T17:41:29.486Z,8.49
2019-03-09T17:44:01.774Z,8.50
2019-03-09T17:46:33.331Z,8.54
2019-03-09T17:49:03.843Z,8.56
2019-03-09T17:51:34.722Z,8.56
2019-03-09T17:54:07.912Z,8.60
2019-03-09T17:56:38.450Z,8.65
2019-03-09T17:59:09.148Z,8.71
2019-03-09T18:01:39.671Z,8.72
2019-03-09T18:04:10.647Z,8.76
2019-03-09T18:06:41.322Z,8.80
2019-03-09T18:09:13.257Z,8.81
2019-03-09T18:11:44.019Z,8.82
2019-03-09T18:14:14.907Z,8.80
2019-03-09T18:16:52.458Z,8.78
2019-03-09T18:19:17.662Z,8.76
2019-03-09T18:21:48.870Z,8.77
2019-03-09T18:24:19.522Z,8.75
2019-03-09T18:26:50.722Z,8.73
2019-03-09T18:29:21.055Z,8.71
2019-03-09T18:31:51.872Z,8.71
2019-03-09T18:34:22.485Z,8.69
2019-03-09T18:36:53.082Z,8.69
2019-03-09T18:39:23.746Z,8.70
2019-03-09T18:41:54.588Z,8.74
2019-03-09T18:44:25.437Z,8.73
2019-03-09T18:46:56.167Z,8.76
2019-03-09T18:49:26.839Z,8.78
2019-03-09T18:51:57.653Z,8.83
2019-03-09T18:54:29.634Z,8.87
2019-03-09T18:57:00.640Z,8.92
2019-03-09T18:59:31.248Z,8.92
2019-03-09T19:02:02.107Z,8.86
2019-03-09T19:04:33.183Z,8.31
2019-03-09T19:07:03.841Z,8.16
2019-03-09T19:09:34.419Z,8.02
2019-03-09T19:12:04.883Z,7.93
2019-03-09T19:14:35.801Z,7.80
2019-03-09T19:17:06.576Z,7.64
2019-03-09T19:19:37.178Z,7.53
2019-03-09T19:22:07.722Z,7.55
2019-03-09T19:24:38.658Z,7.55
2019-03-09T19:27:10.632Z,7.52
2019-03-09T19:29:41.330Z,7.52
2019-03-09T19:32:12.369Z,7.47
2019-03-09T19:34:42.801Z,7.45
2019-03-09T19:37:13.330Z,7.45
2019-03-09T19:39:43.933Z,7.44
2019-03-09T19:42:14.851Z,7.42
2019-03-09T19:44:45.472Z,7.43
2019-03-09T19:47:16.456Z,7.41
2019-03-09T19:49:47.304Z,7.42
2019-03-09T19:52:18.123Z,7.43
2019-03-09T19:54:48.783Z,7.42
2019-03-09T19:57:19.164Z,7.44
2019-03-09T19:59:49.529Z,7.43
2019-03-09T20:02:20.271Z,7.44
2019-03-09T20:04:50.731Z,7.47
2019-03-09T20:07:21.578Z,7.46
2019-03-09T20:09:52.541Z,7.41
2019-03-09T20:12:23.387Z,7.38
2019-03-09T20:14:53.998Z,7.33
2019-03-09T20:17:25.671Z,7.30
2019-03-09T20:19:56.420Z,7.28
2019-03-09T20:22:27.076Z,7.25
2019-03-09T20:24:59.059Z,7.26
2019-03-09T20:27:30.085Z,7.24
2019-03-09T20:30:00.742Z,7.25
2019-03-09T20:32:31.700Z,7.27
2019-03-09T20:35:02.485Z,7.24
2019-03-09T20:37:33.172Z,7.24
2019-03-09T20:40:04.409Z,7.24
2019-03-09T20:42:36.004Z,7.26
2019-03-09T20:45:08.575Z,7.24
2019-03-09T20:47:39.029Z,7.24
2019-03-09T20:50:11.091Z,7.23
2019-03-09T20:52:41.762Z,7.25
2019-03-09T20:55:12.360Z,7.27
2019-03-09T20:57:44.107Z,7.30
2019-03-09T21:00:16.369Z,7.31
2019-03-09T21:02:47.043Z,7.32
2019-03-09T21:05:18.066Z,7.33
2019-03-09T21:07:48.759Z,7.35
2019-03-09T21:10:19.396Z,7.32
2019-03-09T21:12:57.430Z,7.33
2019-03-09T21:15:27.910Z,7.34
2019-03-09T21:17:58.650Z,7.36
2019-03-09T21:20:29.086Z,7.41
2019-03-09T21:22:59.893Z,7.43
2019-03-09T21:25:30.272Z,7.45
2019-03-09T21:28:01.022Z,7.48
2019-03-09T21:30:31.475Z,7.48
2019-03-09T21:33:01.896Z,7.50
2019-03-09T21:35:33.157Z,7.46
2019-03-09T21:38:03.539Z,7.50
2019-03-09T21:40:34.061Z,7.44
2019-03-09T21:43:04.442Z,7.45
2019-03-09T21:45:34.881Z,7.48
2019-03-09T21:48:05.865Z,7.46
2019-03-09T21:50:36.265Z,7.45
2019-03-09T21:53:06.755Z,7.44
2019-03-09T21:55:37.500Z,7.49
2019-03-09T21:58:08.053Z,7.49
2019-03-09T22:00:38.504Z,7.46
2019-03-09T22:03:09.035Z,7.45
2019-03-09T22:05:39.450Z,7.44
2019-03-09T22:08:09.998Z,7.49
2019-03-09T22:10:40.424Z,7.51
2019-03-09T22:13:11.836Z,7.53
2019-03-09T22:15:43.545Z,7.56
2019-03-09T22:18:14.941Z,7.60
2019-03-09T22:20:45.414Z,7.54
2019-03-09T22:23:15.743Z,7.48
2019-03-09T22:25:46.154Z,7.34
2019-03-09T22:28:18.368Z,7.11
2019-03-09T22:30:48.964Z,6.81
2019-03-09T22:33:19.409Z,6.48
2019-03-09T22:35:50.201Z,6.30
2019-03-09T22:38:20.617Z,6.16
2019-03-09T22:40:50.929Z,6.10
2019-03-09T22:43:21.353Z,6.01
2019-03-09T22:45:51.755Z,6.02
2019-03-09T22:48:23.184Z,5.95
2019-03-09T22:50:53.702Z,5.95
2019-03-09T22:53:24.092Z,5.86
2019-03-09T22:55:54.705Z,5.82
2019-03-09T22:58:25.213Z,5.85
2019-03-09T23:00:55.813Z,5.85
2019-03-09T23:03:26.274Z,5.86
2019-03-09T23:05:56.763Z,5.81
2019-03-09T23:08:27.382Z,5.84
2019-03-09T23:10:57.836Z,5.80
2019-03-09T23:13:28.253Z,5.79
2019-03-09T23:15:58.733Z,5.78
2019-03-09T23:18:29.246Z,5.78
2019-03-09T23:21:00.069Z,5.81
2019-03-09T23:23:30.542Z,5.82
2019-03-09T23:26:01.103Z,5.81
2019-03-09T23:28:46.235Z,5.83
2019-03-09T23:31:17.039Z,5.87
2019-03-09T23:33:47.620Z,5.87
2019-03-09T23:36:18.223Z,5.89
2019-03-09T23:38:48.958Z,5.95
2019-03-09T23:41:19.499Z,6.10
2019-03-09T23:43:50.152Z,6.29
2019-03-09T23:46:20.632Z,6.41
2019-03-09T23:48:51.411Z,6.45
2019-03-09T23:51:22.141Z,6.45
2019-03-09T23:53:53.844Z,6.45
2019-03-09T23:56:26.741Z,6.43
2019-03-09T23:58:59.277Z,6.53
